East End, Virginia
Current Conditions -  °F | °C
As of 5:36 PM on Wednesday 22 Oct 2014 (Local Time) from KRIC Reporting Station
Light Rain Light Rain  
Wind Chill: 55°   Ceiling: 5500
Heat Index: 55°   Visibility: 9mi
Dew Point: 48°   Wind: 17mph
Humidity: 77%   Direction: 330°NNW
Pressure: 29.93"   Gusts: 25mph
Location:  37.556°N, 77.3779°W
Report Text: KRIC 222136Z 33015G22KT 9SM -RA SCT021 BKN055 OVC070 13/09 A2993 RMK AO2 PK WND 33026/2118 RAB01 P0001
Loading
Personal Weather Stations






























Interactive Weather Map
Tropical Storm Tracking
New forecast layout! Learn more

10-Day Weather Forecast

Advertisements
Track Severe Weather on mobile